« Back
NWS Peachtree City, Ga » Text Product » AHN Terminal Aerodrome Forecast


Printer-friendly Version
Current Version              Previous Versions:   1  2  3  4  5  6  7  8  9  

Terminal Aerodrome Forecast

270
FTUS42 KFFC 191700
TAFAHN
TAF
KAHN 191730Z 1918/2018 10009KT P6SM SCT035
     FM200100 08005KT P6SM FEW060
     FM200900 07005KT 4SM BR BKN009
     FM201500 08009G15KT P6SM SCT035=



USA.gov is the U.S. government's official web portal to all federal, state and local government web resources and services.